createdAt,value
2022-11-05T05:41:24.394Z,8.70
2022-11-05T05:44:29.321Z,8.10
2022-11-05T05:47:34.809Z,10.63
2022-11-05T05:50:39.632Z,5.90
2022-11-05T05:53:51.072Z,5.40
2022-11-05T05:56:56.085Z,5.30
2022-11-05T06:00:01.976Z,8.68
2022-11-05T06:03:16.225Z,10.02
2022-11-05T06:06:21.389Z,8.90
2022-11-05T06:09:26.277Z,8.98
2022-11-05T06:12:31.379Z,5.28
2022-11-05T06:15:38.648Z,5.68
2022-11-05T06:18:43.536Z,5.38
2022-11-05T06:21:48.195Z,19.13
2022-11-05T06:24:53.157Z,5.25
2022-11-05T06:27:58.357Z,4.40
2022-11-05T06:31:05.016Z,5.00
2022-11-05T06:34:10.455Z,4.70
2022-11-05T06:37:15.753Z,4.88
2022-11-05T06:40:21.204Z,3.70
2022-11-05T06:43:30.269Z,7.68
2022-11-05T06:46:35.527Z,4.00
2022-11-05T06:49:40.552Z,5.90
2022-11-05T06:52:45.959Z,2.72
2022-11-05T06:55:50.784Z,3.08
2022-11-05T06:58:55.716Z,4.20
2022-11-05T07:02:00.839Z,4.38
2022-11-05T07:05:07.270Z,5.32
2022-11-05T07:08:12.351Z,3.03
2022-11-05T07:11:17.355Z,2.92
2022-11-05T07:14:22.300Z,3.17
2022-11-05T07:17:27.587Z,2.30
2022-11-05T07:20:34.111Z,2.13
2022-11-05T07:23:39.551Z,2.33
2022-11-05T07:26:44.482Z,2.05
2022-11-05T07:29:50.821Z,2.22
2022-11-05T07:32:55.972Z,2.78
2022-11-05T07:36:00.595Z,1.67
2022-11-05T07:39:05.506Z,2.22
2022-11-05T07:42:13.769Z,2.80
2022-11-05T07:45:19.787Z,2.40
2022-11-05T07:48:24.427Z,7.10
2022-11-05T07:51:29.503Z,2.42
2022-11-05T07:54:34.555Z,4.60
2022-11-05T07:57:48.149Z,2.17
2022-11-05T08:00:52.931Z,2.90
2022-11-05T08:03:57.981Z,2.03
2022-11-05T08:07:02.925Z,2.58
2022-11-05T08:10:08.326Z,4.40
2022-11-05T08:13:14.131Z,3.80
2022-11-05T08:16:19.082Z,2.13
2022-11-05T08:19:23.979Z,5.78
2022-11-05T08:22:28.872Z,12.85
2022-11-05T08:25:34.010Z,7.10
2022-11-05T08:28:38.891Z,2.60
2022-11-05T08:31:44.931Z,2.42
2022-11-05T08:34:49.754Z,3.53
2022-11-05T08:37:59.267Z,3.70
2022-11-05T08:41:04.783Z,3.70
2022-11-05T08:44:09.384Z,3.70
2022-11-05T08:47:14.355Z,5.47
2022-11-05T08:50:19.353Z,2.78
2022-11-05T08:53:24.406Z,4.68
2022-11-05T08:56:29.298Z,3.33
2022-11-05T08:59:33.983Z,3.25
2022-11-05T09:02:38.995Z,7.20
2022-11-05T09:05:43.896Z,3.30
2022-11-05T09:08:49.152Z,4.15
2022-11-05T09:15:19.175Z,4.00
2022-11-05T09:18:24.140Z,3.80
2022-11-05T09:21:28.676Z,3.38
2022-11-05T09:24:33.404Z,2.92
2022-11-05T09:27:38.383Z,3.55
2022-11-05T09:30:48.463Z,3.58
2022-11-05T09:33:53.556Z,3.10
2022-11-05T09:36:58.870Z,3.50
2022-11-05T09:40:05.064Z,2.95
2022-11-05T09:43:19.178Z,2.28
2022-11-05T09:46:29.880Z,4.20
2022-11-05T09:49:40.162Z,2.80
2022-11-05T09:52:45.161Z,2.28
2022-11-05T09:55:54.144Z,3.30
2022-11-05T09:59:06.561Z,2.92
2022-11-05T10:02:19.761Z,4.63
2022-11-05T10:05:25.890Z,3.15
2022-11-05T10:08:35.017Z,3.30
2022-11-05T10:11:51.162Z,2.88
2022-11-05T10:15:51.222Z,3.35
2022-11-05T10:19:11.133Z,3.95
2022-11-05T10:22:18.904Z,6.22
2022-11-05T10:25:31.089Z,4.30
2022-11-05T10:28:36.699Z,4.70
2022-11-05T10:31:41.716Z,6.78
2022-11-05T10:34:46.510Z,4.05
2022-11-05T10:37:53.558Z,4.53
2022-11-05T10:41:27.779Z,5.38
2022-11-05T10:44:34.251Z,4.60
2022-11-05T10:47:52.042Z,8.05
2022-11-05T10:50:57.811Z,5.78
2022-11-05T10:54:12.512Z,5.63
2022-11-05T10:57:39.279Z,6.63
2022-11-05T11:01:05.088Z,5.80
2022-11-05T11:04:38.030Z,5.82
2022-11-05T11:07:43.304Z,4.63
2022-11-05T11:11:03.930Z,3.80
2022-11-05T11:14:11.725Z,3.38
2022-11-05T11:17:29.579Z,4.13
2022-11-05T11:20:34.469Z,4.68
2022-11-05T11:23:41.518Z,5.32
2022-11-05T11:26:46.975Z,4.85
2022-11-05T11:30:00.728Z,4.95
2022-11-05T11:33:08.946Z,4.03
2022-11-05T11:36:18.011Z,6.13
2022-11-05T11:39:26.908Z,7.93
2022-11-05T11:42:35.178Z,7.43
2022-11-05T11:45:49.925Z,4.90
2022-11-05T11:48:55.126Z,6.57
2022-11-05T11:52:05.434Z,6.32
2022-11-05T11:55:21.417Z,6.10
2022-11-05T11:58:50.331Z,5.63
2022-11-05T12:02:26.360Z,6.78
2022-11-05T12:05:43.301Z,5.00
2022-11-05T12:09:06.931Z,7.93
2022-11-05T12:12:14.682Z,6.72
2022-11-05T12:15:54.291Z,5.63
2022-11-05T12:19:02.062Z,6.00
2022-11-05T12:22:42.627Z,6.78
2022-11-05T12:26:01.280Z,10.95
2022-11-05T12:29:35.948Z,29.00
2022-11-05T12:32:54.706Z,8.18
2022-11-05T12:36:06.036Z,11.25
2022-11-05T12:39:42.876Z,15.68
2022-11-05T12:43:18.233Z,16.95
2022-11-05T12:46:40.680Z,9.43
2022-11-05T12:50:06.403Z,10.05
2022-11-05T12:53:41.480Z,11.65
2022-11-05T12:56:59.385Z,9.88
2022-11-05T13:00:25.328Z,11.02
2022-11-05T13:03:44.437Z,14.35
2022-11-05T13:06:52.311Z,13.95
2022-11-05T13:10:08.064Z,10.90
2022-11-05T13:13:43.509Z,12.75
2022-11-05T13:16:53.318Z,12.55
2022-11-05T13:20:22.706Z,13.15
2022-11-05T13:23:55.020Z,15.75
2022-11-05T13:27:07.266Z,14.90
2022-11-05T13:30:22.720Z,12.77
2022-11-05T13:33:43.629Z,17.80
2022-11-05T13:37:18.574Z,12.73
2022-11-05T13:40:50.556Z,14.38
2022-11-05T13:44:25.525Z,12.35
2022-11-05T13:47:49.147Z,14.25
2022-11-05T13:51:19.046Z,16.10
2022-11-05T13:55:09.964Z,14.40
2022-11-05T13:58:55.305Z,13.82
2022-11-05T14:02:04.743Z,13.77
2022-11-05T14:05:30.469Z,15.57
2022-11-05T14:08:43.908Z,14.88
2022-11-05T14:11:56.445Z,16.08
2022-11-05T14:15:28.727Z,19.92
2022-11-05T14:18:49.097Z,18.55
2022-11-05T14:21:58.579Z,14.55
2022-11-05T14:25:18.973Z,19.63
2022-11-05T14:28:36.269Z,20.45
2022-11-05T14:32:08.368Z,21.67
2022-11-05T14:35:16.754Z,19.15
2022-11-05T14:38:27.489Z,18.48
2022-11-05T14:41:55.791Z,17.30
2022-11-05T14:45:33.072Z,17.58
2022-11-05T14:48:47.869Z,17.95
2022-11-05T14:51:55.947Z,17.00
2022-11-05T14:55:00.761Z,17.73
2022-11-05T14:58:29.103Z,15.15
2022-11-05T15:01:34.182Z,16.23
2022-11-05T15:04:43.493Z,16.88
2022-11-05T15:07:59.435Z,13.30
2022-11-05T15:11:30.817Z,14.80
2022-11-05T15:14:51.160Z,12.57
2022-11-05T15:18:17.613Z,14.35
2022-11-05T15:21:22.917Z,14.52
2022-11-05T15:24:28.207Z,13.55
2022-11-05T15:27:52.512Z,14.25
2022-11-05T15:31:19.781Z,13.48
2022-11-05T15:34:33.179Z,11.20
2022-11-05T15:37:53.388Z,15.48
2022-11-05T15:41:20.843Z,14.77
2022-11-05T15:44:30.051Z,17.55
2022-11-05T15:47:35.133Z,22.25
2022-11-05T15:50:40.837Z,26.33
2022-11-05T15:54:15.616Z,25.60
2022-11-05T15:57:24.015Z,24.15
2022-11-05T16:00:32.062Z,29.80
2022-11-05T16:03:38.833Z,31.80
2022-11-05T16:06:47.295Z,29.80
2022-11-05T16:09:59.083Z,26.42
2022-11-05T16:13:38.412Z,27.15
2022-11-05T16:16:44.450Z,24.65
2022-11-05T16:19:50.798Z,25.33
2022-11-05T16:23:04.163Z,31.30
2022-11-05T16:30:01.443Z,21.60
2022-11-05T16:33:07.263Z,20.13
2022-11-05T16:36:12.249Z,20.40
2022-11-05T16:39:17.197Z,20.13
2022-11-05T16:42:26.036Z,20.13
2022-11-05T16:45:41.475Z,21.00
2022-11-05T16:48:47.507Z,24.08
2022-11-05T16:51:52.603Z,23.42
2022-11-05T16:54:57.645Z,24.40
2022-11-05T16:58:02.873Z,25.02
2022-11-05T17:01:16.141Z,24.88
2022-11-05T17:04:21.183Z,26.60
2022-11-05T17:07:26.024Z,36.08
2022-11-05T17:10:31.003Z,25.15
2022-11-05T17:13:35.953Z,28.30
2022-11-05T17:16:41.199Z,30.92
2022-11-05T17:19:46.679Z,24.70
2022-11-05T17:22:51.398Z,28.38
2022-11-05T17:26:02.896Z,24.02
2022-11-05T17:29:07.690Z,34.28
2022-11-05T17:32:13.132Z,31.30
2022-11-05T17:35:18.226Z,32.38
2022-11-05T17:38:24.921Z,30.42
2022-11-05T17:41:30.266Z,23.88
2022-11-05T17:44:35.545Z,28.50
2022-11-05T17:47:40.659Z,45.53
2022-11-05T17:50:48.513Z,22.77
2022-11-05T17:53:53.299Z,35.05
2022-11-05T17:56:58.069Z,22.95
2022-11-05T18:00:04.281Z,20.70
2022-11-05T18:03:15.965Z,19.98
2022-11-05T18:06:21.137Z,21.52
2022-11-05T18:09:26.092Z,23.70
2022-11-05T18:12:31.157Z,18.52
2022-11-05T18:15:40.825Z,21.13
2022-11-05T18:18:46.785Z,22.60
2022-11-05T18:21:51.918Z,21.98
2022-11-05T18:24:56.639Z,21.02
2022-11-05T18:28:02.638Z,20.73
2022-11-05T18:31:18.448Z,24.95
2022-11-05T18:34:23.417Z,21.50
2022-11-05T18:37:28.458Z,26.55
2022-11-05T18:40:33.660Z,27.13
2022-11-05T18:43:38.438Z,31.23
2022-11-05T18:46:57.569Z,27.90
2022-11-05T18:50:05.336Z,28.35
2022-11-05T18:53:10.228Z,44.90
2022-11-05T18:56:17.349Z,27.40
2022-11-05T18:59:36.908Z,27.90
2022-11-05T19:02:43.066Z,26.90
2022-11-05T19:05:48.156Z,30.23
2022-11-05T19:08:53.065Z,24.08
2022-11-05T19:11:57.971Z,26.90
2022-11-05T19:15:03.358Z,26.85
2022-11-05T19:18:08.763Z,31.08
2022-11-05T19:21:21.151Z,31.35
2022-11-05T19:24:26.016Z,32.70
2022-11-05T19:27:31.204Z,30.35
2022-11-05T19:30:38.773Z,29.77
2022-11-05T19:33:44.619Z,31.90
2022-11-05T19:36:49.507Z,30.67
2022-11-05T19:39:54.381Z,28.30
2022-11-05T19:42:59.293Z,31.77
2022-11-05T19:46:10.461Z,29.88
2022-11-05T19:49:15.493Z,35.45
2022-11-05T19:52:20.381Z,29.38
2022-11-05T19:55:25.301Z,35.35
2022-11-05T19:58:30.182Z,26.05
2022-11-05T20:01:35.576Z,30.08
2022-11-05T20:04:40.479Z,28.85
2022-11-05T20:07:51.285Z,34.88
2022-11-05T20:10:57.755Z,42.05
2022-11-05T20:14:03.329Z,31.58
2022-11-05T20:17:08.113Z,32.50
2022-11-05T20:20:12.947Z,35.65
2022-11-05T20:23:17.701Z,34.55
2022-11-05T20:26:23.097Z,35.63
2022-11-05T20:29:33.862Z,30.92
2022-11-05T20:32:40.381Z,35.40
2022-11-05T20:35:45.445Z,32.08
2022-11-05T20:38:55.266Z,37.65
2022-11-05T20:42:00.726Z,33.22
2022-11-05T20:45:07.513Z,31.95
2022-11-05T20:48:13.103Z,33.63
2022-11-05T20:51:20.739Z,37.90
2022-11-05T20:54:25.949Z,37.15
2022-11-05T20:57:31.008Z,37.58
2022-11-05T21:00:35.898Z,33.83
2022-11-05T21:03:40.664Z,36.28
2022-11-05T21:06:45.490Z,35.55
2022-11-05T21:09:50.307Z,34.75
2022-11-05T21:12:55.248Z,39.05
2022-11-05T21:16:00.983Z,34.63
2022-11-05T21:19:05.774Z,35.88
2022-11-05T21:22:15.134Z,42.03
2022-11-05T21:25:20.180Z,38.38
2022-11-05T21:28:25.199Z,32.38
2022-11-05T21:31:30.267Z,38.20
2022-11-05T21:34:35.292Z,38.65
2022-11-05T21:37:40.389Z,36.03
2022-11-05T21:40:45.933Z,36.25
2022-11-05T21:43:50.749Z,34.90
2022-11-05T21:46:59.036Z,35.00
2022-11-05T21:50:04.025Z,37.30
2022-11-05T21:53:36.749Z,37.13
2022-11-05T21:56:59.951Z,38.97
2022-11-05T22:00:09.164Z,37.78
2022-11-05T22:03:14.309Z,37.58
2022-11-05T22:06:19.186Z,38.35
2022-11-05T22:09:24.987Z,36.28
2022-11-05T22:12:31.562Z,36.00
2022-11-05T22:15:36.546Z,38.85
2022-11-05T22:18:41.283Z,32.88
2022-11-05T22:21:46.492Z,28.58
2022-11-05T22:24:51.761Z,36.22
2022-11-05T22:27:56.549Z,34.58
2022-11-05T22:31:01.468Z,30.88
2022-11-05T22:34:06.620Z,31.17
2022-11-05T22:37:13.096Z,38.10
2022-11-05T22:40:19.547Z,31.13
2022-11-05T22:43:25.719Z,32.22
2022-11-05T22:46:31.469Z,29.70
2022-11-05T22:49:36.781Z,34.83
2022-11-05T22:52:41.730Z,31.77
2022-11-05T22:55:46.684Z,35.53
2022-11-05T22:58:52.454Z,34.00
2022-11-05T23:01:57.332Z,28.25
2022-11-05T23:05:02.136Z,32.35
2022-11-05T23:08:25.378Z,33.35
2022-11-05T23:11:38.063Z,35.88
2022-11-05T23:14:42.732Z,33.97
2022-11-05T23:18:05.893Z,35.30
2022-11-05T23:21:29.154Z,30.92
2022-11-05T23:24:33.768Z,37.92
2022-11-05T23:27:40.809Z,35.45
2022-11-05T23:31:04.361Z,37.60
2022-11-05T23:34:09.339Z,33.63
2022-11-05T23:37:32.732Z,35.10
2022-11-05T23:40:57.582Z,33.47
2022-11-05T23:44:21.248Z,33.47
2022-11-05T23:47:44.752Z,38.28
2022-11-05T23:50:55.470Z,33.90
2022-11-05T23:54:00.509Z,34.25
2022-11-05T23:57:05.215Z,39.90
